Latest Weather Observations for Hughenden

IDQ60801

Issued at 8:12 pm EST Friday 26 February 2021 (issued every 10 minutes, with the page automatically refreshed every 10 minutes)

About weather observations | Map of weather stations | Latest weather observations for QLD | Other Formats
Station Details ID: 030022 Name: HUGHENDEN AIRPORT Lat: -20.82 Lon: 144.23 Height: 316.4 m
Data from the previous 72 hours. | See also: Recent months at Hughenden
Date/Time
EST
Temp
°C
App
Temp
°C
Dew
Point
°C
Rel
Hum
%
Delta-T
°C
Wind Press
QNH
hPa
Press
MSL
hPa
Rain since
9am
mm
Dir  Spd
km/h
Gust
km/h
Spd
kts
Gust
kts
26/08:00pm 30.2 29.4 16.2 42 8.9 ENE 15 20 8 11 1006.9 1004.5 0.0
26/07:30pm 30.6 29.3 15.8 40 9.3 ENE 17 24 9 13 1006.5 1004.2 0.0
26/07:00pm 31.2 29.9 14.8 37 10.2 E 15 24 8 13 1006.1 1003.8 0.0
26/06:30pm 31.7 30.0 14.8 36 10.5 E 17 26 9 14 1005.8 1003.5 0.0
26/06:00pm 32.1 31.1 15.6 37 10.4 E 15 24 8 13 1005.5 1003.2 0.0
26/05:30pm 32.5 31.4 16.3 37 10.3 E 17 22 9 12 1005.1 1002.7 0.0
26/05:00pm 32.7 31.9 16.1 37 10.6 ENE 15 22 8 12 1004.8 1002.4 0.0
26/04:30pm 33.3 33.7 16.2 36 10.9 NE 9 15 5 8 1004.7 1002.3 0.0
26/04:00pm 32.9 32.1 15.0 34 11.2 NE 13 24 7 13 1005.0 1002.6 0.0
26/03:30pm 33.1 31.9 15.1 33 11.3 NE 15 28 8 15 1005.0 1002.6 0.0
26/03:00pm 33.0 31.6 14.6 33 11.5 NE 15 22 8 12 1005.0 1002.6 0.0
26/02:30pm 33.2 31.3 15.2 33 11.3 ENE 19 26 10 14 1005.4 1003.1 0.0
26/02:00pm 33.5 31.7 15.9 34 11.2 NE 20 30 11 16 1005.9 1003.6 0.0
26/01:30pm 32.5 31.2 15.9 36 10.5 NE 17 26 9 14 1006.3 1004.0 0.0
26/01:00pm 32.1 31.0 16.4 39 10.0 NE 17 26 9 14 1006.6 1004.3 0.0
26/12:30pm 32.6 32.0 17.6 40 9.7 NE 17 28 9 15 1007.0 1004.6 0.0
26/12:00pm 31.5 30.4 17.8 44 8.9 ENE 20 32 11 17 1007.4 1005.0 0.0
26/11:30am 30.4 29.8 18.8 50 7.6 ENE 20 32 11 17 1007.9 1005.5 0.0
26/11:00am 29.7 28.4 18.2 50 7.5 NE 22 30 12 16 1008.5 1006.2 0.0
26/10:30am 30.2 29.1 18.6 49 7.6 NE 22 32 12 17 1008.6 1006.3 0.0
26/10:00am 28.8 27.4 18.0 52 7.0 ENE 22 30 12 16 1008.8 1006.5 0.0
26/09:30am 28.4 26.9 18.5 55 6.4 NE 24 32 13 17 1008.8 1006.5 0.0
26/09:00am 27.4 26.6 18.1 57 6.0 NE 19 28 10 15 1008.7 1006.4 0.0
26/08:30am 27.2 26.8 18.8 60 5.5 ENE 19 28 10 15 1008.6 1006.3 0.0
26/08:00am 25.9 26.5 18.6 64 4.7 ENE 13 17 7 9 1008.5 1006.2 0.0
26/07:30am 25.1 25.6 18.3 66 4.4 NE 13 17 7 9 1008.4 1006.1 0.0
26/07:00am 23.8 24.5 18.9 74 3.2 ENE 13 15 7 8 1007.8 1005.4 0.0
26/06:30am 23.5 24.6 18.8 75 3.0 NE 11 11 6 6 1007.7 1005.3 0.0
26/06:00am 23.7 25.6 19.0 75 3.0 NNE 7 7 4 4 1007.5 1005.1 0.0
26/05:30am 24.1 26.0 19.0 73 3.3 NNE 7 9 4 5 1007.3 1004.9 0.0
26/05:00am 24.5 26.0 18.9 71 3.6 NE 9 13 5 7 1007.1 1004.7 0.0
26/04:30am 24.4 25.5 18.8 71 3.6 NE 11 15 6 8 1006.8 1004.4 0.0
26/04:00am 25.1 25.4 18.8 68 4.1 ENE 15 20 8 11 1006.5 1004.2 0.0
26/03:30am 24.1 26.1 19.2 74 3.2 E 7 9 4 5 1006.5 1004.2 0.0
26/03:00am 23.9 25.9 19.2 75 3.0 ESE 7 9 4 5 1006.5 1004.2 0.0
26/02:30am 23.5 25.3 18.8 75 3.0 E 7 9 4 5 1006.8 1004.4 0.0
26/02:00am 23.5 25.2 18.4 73 3.3 E 7 7 4 4 1007.3 1004.9 0.0
26/01:30am 24.2 25.8 18.2 69 3.8 E 7 13 4 7 1007.7 1005.3 0.0
26/01:00am 24.5 26.2 18.4 69 3.9 E 7 11 4 6 1007.9 1005.5 0.0
26/12:30am 24.6 26.6 19.2 72 3.5 SSE 7 9 4 5 1008.2 1005.9 0.0
26/12:00am 24.7 26.4 18.6 69 3.9 SSW 7 11 4 6 1008.4 1006.1 0.0
 
Date/Time
EST
Temp
°C
App
Temp
°C
Dew
Point
°C
Rel
Hum
%
Delta-T
°C
Wind Press
QNH
hPa
Press
MSL
hPa
Rain since
9am
mm
Dir  Spd
km/h
Gust
km/h
Spd
kts
Gust
kts
25/11:30pm 24.8 26.2 18.7 69 3.9 SW 9 13 5 7 1008.5 1006.2 0.0
25/11:00pm 25.1 26.0 18.3 66 4.4 WSW 11 13 6 7 1009.0 1006.7 0.0
25/10:30pm 25.9 25.5 18.1 62 5.0 SW 17 22 9 12 1009.0 1006.7 0.0
25/10:00pm 26.3 27.4 19.7 67 4.3 W 13 20 7 11 1008.9 1006.6 0.0
25/09:30pm 26.4 30.1 20.0 68 4.2 CALM 0 0 0 0 1008.3 1006.0 0.0
25/09:00pm 26.6 30.3 20.0 67 4.4 CALM 0 0 0 0 1008.1 1005.7 0.0
25/08:30pm 26.7 29.3 19.3 64 4.8 NNW 4 7 2 4 1007.9 1005.5 0.0
25/08:00pm 26.6 27.9 19.2 64 4.8 NNW 11 15 6 8 1007.7 1005.3 0.0
25/07:30pm 26.9 28.8 18.5 60 5.4 NNW 6 11 3 6 1007.3 1004.9 0.0
25/07:00pm 26.9 28.1 18.2 59 5.6 W 9 13 5 7 1006.8 1004.4 0.0
25/06:30pm 27.3 29.0 18.0 56 6.0 S 6 9 3 5 1006.3 1004.0 0.0
25/06:00pm 27.3 28.3 17.8 56 6.1 S 9 17 5 9 1006.0 1003.7 0.0
25/05:30pm 27.2 27.0 17.7 56 6.1 S 15 20 8 11 1005.8 1003.5 0.0
25/05:00pm 28.6 26.6 16.5 48 7.6 S 22 30 12 16 1005.4 1003.1 0.0
25/04:30pm 29.5 27.7 17.0 47 8.0 S 22 33 12 18 1005.2 1002.8 0.0
25/04:00pm 29.7 27.5 17.8 48 7.7 S 26 33 14 18 1005.1 1002.7 0.0
25/03:30pm 31.1 29.3 17.0 42 9.0 S 22 32 12 17 1005.1 1002.7 0.0
25/03:00pm 34.2 31.9 14.1 29 12.5 ESE 19 28 10 15 1005.3 1003.0 0.0
25/02:30pm 33.7 32.2 15.2 33 11.6 ESE 17 24 9 13 1005.8 1003.5 0.0
25/02:00pm 33.1 31.5 16.0 35 10.9 ESE 19 26 10 14 1006.2 1003.9 0.0
25/01:30pm 32.3 31.9 16.2 38 10.2 ESE 13 20 7 11 1006.8 1004.4 0.0
25/01:00pm 32.1 31.4 16.4 39 10.0 ESE 15 26 8 14 1007.3 1004.9 0.0
25/12:30pm 32.9 33.2 14.5 33 11.4 E 6 11 3 6 1007.9 1005.5 0.0
25/12:00pm 32.4 32.9 17.5 41 9.7 NE 11 19 6 10 1008.4 1006.1 0.0
25/11:30am 31.7 31.5 16.8 40 9.5 NE 13 17 7 9 1008.8 1006.5 0.0
25/11:00am 31.4 30.5 17.7 44 8.9 E 19 24 10 13 1009.3 1007.0 0.0
25/10:30am 30.4 30.1 18.2 48 7.9 ENE 17 26 9 14 1009.5 1007.2 0.0
25/10:00am 29.1 29.3 18.5 52 6.9 ENE 15 22 8 12 1009.9 1007.6 0.0
25/09:30am 28.6 29.5 18.4 54 6.6 ENE 11 19 6 10 1009.7 1007.4 0.0
25/09:00am 27.7 27.7 18.1 56 6.2 NE 15 20 8 11 1009.6 1007.3 0.0
25/08:30am 27.2 27.6 18.2 58 5.8 ENE 13 20 7 11 1009.5 1007.2 0.0
25/08:00am 26.7 27.4 18.8 62 5.1 ENE 13 17 7 9 1009.4 1007.1 0.0
25/07:30am 25.7 27.2 18.9 66 4.4 NE 9 13 5 7 1009.1 1006.8 0.0
25/07:00am 24.3 25.8 18.9 72 3.5 NE 9 13 5 7 1008.7 1006.4 0.0
25/06:30am 24.1 25.4 19.4 75 3.0 ENE 11 15 6 8 1008.2 1005.9 0.0
25/06:00am 23.7 25.7 19.2 76 2.9 NE 7 9 4 5 1007.9 1005.5 0.0
25/05:30am 24.2 25.9 19.3 74 3.2 NNE 9 11 5 6 1007.6 1005.2 0.0
25/05:00am 24.4 25.9 19.7 75 3.1 NNE 11 13 6 7 1007.4 1005.0 0.0
25/04:30am 24.6 25.7 19.7 74 3.2 NE 13 17 7 9 1007.4 1005.0 0.0
25/04:00am 24.6 25.7 19.7 74 3.2 NE 13 15 7 8 1007.5 1005.1 0.0
25/03:30am 24.7 26.0 20.2 76 3.0 NNE 13 17 7 9 1007.5 1005.1 0.0
25/03:00am 24.6 25.4 19.9 75 3.1 NE 15 17 8 9 1007.4 1005.0 0.0
25/02:30am 24.7 27.0 20.6 78 2.7 NE 9 11 5 6 1007.5 1005.1 0.0
25/02:00am 24.6 28.5 20.3 77 2.8 CALM 0 0 0 0 1007.7 1005.3 0.0
25/01:30am 24.7 28.1 19.3 72 3.5 CALM 0 0 0 0 1007.9 1005.5 0.0
25/01:00am 25.0 28.2 18.9 69 3.9 CALM 0 0 0 0 1008.3 1006.0 0.0
25/12:30am 25.0 28.4 19.4 71 3.6 CALM 0 0 0 0 1008.7 1006.4 0.0
25/12:00am 25.3 27.2 19.0 68 4.1 SW 7 13 4 7 1008.6 1006.3 0.0
 
Date/Time
EST
Temp
°C
App
Temp
°C
Dew
Point
°C
Rel
Hum
%
Delta-T
°C
Wind Press
QNH
hPa
Press
MSL
hPa
Rain since
9am
mm
Dir  Spd
km/h
Gust
km/h
Spd
kts
Gust
kts
24/11:30pm 26.0 25.9 18.7 64 4.7 WSW 17 22 9 12 1008.8 1006.5 0.0
24/11:00pm 26.1 26.2 19.2 65 4.5 WSW 17 22 9 12 1008.9 1006.6 0.0
24/10:30pm 26.5 28.7 19.6 66 4.5 N 7 9 4 5 1008.4 1006.1 0.0
24/10:00pm 26.7 28.3 19.1 63 5.0 ESE 9 11 5 6 1008.4 1006.1 0.0
24/09:30pm 26.7 28.8 19.3 64 4.8 E 7 11 4 6 1008.3 1006.0 0.0
24/09:00pm 26.5 27.3 19.1 64 4.8 E 13 17 7 9 1008.6 1006.3 0.0
24/08:30pm 26.3 27.9 19.2 65 4.6 SE 9 13 5 7 1008.4 1006.1 0.0
24/08:00pm 26.3 27.8 18.9 63 4.8 SE 9 13 5 7 1008.3 1006.0 0.0
24/07:30pm 26.7 27.2 18.3 60 5.4 N 13 19 7 10 1007.8 1005.4 0.0
24/07:00pm 26.7 27.7 18.6 61 5.2 NW 11 15 6 8 1007.6 1005.2 0.0
24/06:30pm 26.5 25.9 18.9 63 4.9 NW 20 30 11 16 1007.1 1004.7 0.0
24/06:00pm 29.5 27.7 16.0 44 8.5 NNW 20 32 11 17 1006.6 1004.3 0.0
24/05:30pm 32.1 32.2 15.6 37 10.4 N 9 20 5 11 1006.1 1003.8 0.0
24/05:00pm 33.9 33.0 15.8 33 11.5 NE 15 20 8 11 1005.2 1002.8 0.0
24/04:30pm 33.8 32.3 14.3 31 12.1 ENE 15 20 8 11 1005.1 1002.7 0.0
24/04:00pm 29.4 29.3 20.0 57 6.3 NE 20 26 11 14 1005.3 1003.0 0.0
24/03:30pm 34.0 32.3 18.1 39 10.4 NE 24 35 13 19 1005.4 1003.1 0.0
24/03:16pm 33.5 30.9 15.9 34 11.2 ENE 24 37 13 20 1005.5 1003.2 0.0
24/03:00pm 34.5 35.1 15.9 33 11.9 NNW 7 15 4 8 1005.6 1003.3 0.0
24/02:30pm 34.9 34.5 14.2 28 12.9 WNW 9 15 5 8 1005.9 1003.6 0.0
24/02:00pm 34.5 35.1 15.4 32 12.1 SSE 6 13 3 7 1006.4 1004.1 0.0
24/01:30pm 34.3 35.4 18.8 40 10.3 ENE 11 20 6 11 1007.0 1004.6 0.0
24/01:00pm 33.4 34.3 16.7 36 10.7 S 7 15 4 8 1007.7 1005.3 0.0
24/12:30pm 33.4 34.5 18.0 40 10.1 S 9 19 5 10 1008.2 1005.9 0.0
24/12:00pm 33.2 34.6 17.8 40 10.0 SSE 7 13 4 7 1008.7 1006.4 0.0
24/11:30am 32.2 33.4 16.9 40 9.8 SSE 6 11 3 6 1009.1 1006.8 0.0
24/11:00am 31.8 32.0 17.7 43 9.1 ESE 13 19 7 10 1009.6 1007.3 0.0
24/10:30am 31.1 33.1 18.8 48 8.1 S 6 9 3 5 1009.8 1007.5 0.0
24/10:00am 30.6 32.8 19.3 51 7.5 SSW 6 11 3 6 1009.9 1007.6 0.0
24/09:30am 29.8 32.6 18.9 52 7.1 S 2 7 1 4 1009.8 1007.5 0.0
24/09:00am 28.6 31.8 19.8 59 5.8 ENE 2 7 1 4 1009.4 1007.1 7.4
24/08:30am 27.4 28.7 19.2 61 5.4 ENE 11 17 6 9 1009.1 1006.8 7.4
24/08:00am 26.2 27.9 19.3 65 4.5 NE 9 13 5 7 1008.5 1006.2 7.4
24/07:30am 25.1 27.3 19.7 72 3.5 NE 7 13 4 7 1008.3 1006.0 7.4
24/07:00am 24.4 28.0 19.7 75 3.1 CALM 0 6 0 3 1008.2 1005.9 7.4
24/06:30am 24.0 25.3 19.3 75 3.0 N 11 17 6 9 1008.0 1005.6 7.4
24/06:00am 23.9 24.9 19.4 76 2.9 NNE 13 17 7 9 1007.8 1005.4 7.4
24/05:30am 23.8 24.6 19.1 75 3.0 NE 13 17 7 9 1007.8 1005.4 7.4
24/05:00am 23.4 25.9 19.8 80 2.3 E 6 7 3 4 1007.9 1005.5 7.4
24/04:30am 23.3 24.0 18.8 76 2.9 ENE 13 17 7 9 1007.8 1005.4 7.4
24/04:00am 23.6 24.2 18.7 74 3.1 NNE 13 19 7 10 1007.7 1005.3 7.4
24/03:30am 23.7 23.0 19.4 77 2.8 E 22 33 12 18 1008.3 1006.0 7.4
24/03:00am 23.4 25.7 19.8 80 2.3 NNE 7 9 4 5 1007.2 1004.8 7.4
24/02:30am 23.4 24.2 19.8 80 2.3 N 15 19 8 10 1007.6 1005.2 7.4
24/02:00am 24.1 25.8 19.4 75 3.1 WSW 9 13 5 7 1008.1 1005.7 7.2
24/01:30am 24.1 25.7 19.2 74 3.2 SSW 9 19 5 10 1008.8 1006.5 7.2
24/01:00am 23.5 26.0 20.2 82 2.2 NNE 7 15 4 8 1009.3 1007.0 6.6
24/12:33am 23.1 23.5 19.1 78 2.6 E 15 22 8 12 1010.1 1007.7 6.0
24/12:30am 23.3 24.4 18.8 76 2.9 ESE 11 20 6 11 1010.1 1007.7 5.8
24/12:14am 24.8 24.5 17.3 63 4.7 E 15 41 8 22 1009.9 1007.6 3.2
24/12:00am 26.8 26.0 17.0 55 6.2 S 17 24 9 13 1010.1 1007.7 0.0
 
Date/Time
EST
Temp
°C
App
Temp
°C
Dew
Point
°C
Rel
Hum
%
Delta-T
°C
Wind Press
QNH
hPa
Press
MSL
hPa
Rain since
9am
mm
Dir  Spd
km/h
Gust
km/h
Spd
kts
Gust
kts
23/11:30pm 26.9 26.7 16.8 54 6.4 NW 13 20 7 11 1008.8 1006.5 0.0
23/11:00pm 27.5 26.1 16.5 51 6.9 NNW 19 26 10 14 1008.5 1006.2 0.0
23/10:30pm 27.7 25.4 16.6 50 7.0 NNW 24 33 13 18 1008.1 1005.7 0.0
23/10:00pm 29.0 26.3 15.5 44 8.4 N 24 35 13 19 1008.3 1006.0 0.0
23/09:30pm 29.9 27.5 14.4 38 9.5 N 20 26 11 14 1008.4 1006.1 0.0
23/09:00pm 30.3 28.1 14.4 38 9.8 N 19 30 10 16 1008.1 1005.7 0.0
23/08:30pm 30.9 28.8 15.3 38 9.7 NE 20 28 11 15 1007.4 1005.0 0.0

Other formats

Comma delimited format used in spreadsheet applications
http://www.bom.gov.au/fwo/IDQ60801/IDQ60801.94343.axf

JavaScript Object Notation format (JSON) in row-major order
http://www.bom.gov.au/fwo/IDQ60801/IDQ60801.94343.json

Data quality

Most of these data are generated automatically and are frequently updated. Quality checks on data are not normally performed. It is possible for incorrect values to appear. Refer to information at About Latest Weather Observations and please check the disclaimer before using these data.